Accueil
METAR-TAF:

METAR-TAF

Aéroports :

Shuttle Landing Facility

Centre spatial Kennedy, Floride, États-Unis

latitude: 28-37N, longitude: 080-43W, altitude: 3 m

Observation

Le bulletin a été fait il y a 31 minutes, à 11:56 UTC
Vent 3 kt de sud/sud-ouest
Température 21°C
Humidité 94%
Pression 1018 hPa
Visibilité: 6.4 km
Ciel clair
brume

METAR: KTTS 281156Z AUTO 20003KT 4SM BR CLR 21/20 A3007 RMK AO2 SLP187 T02070195 10223 20204 52014 $

Heure: 08:27 (12:27 UTC)


TAF: absent

Observations et prévisions météorologiques de plus de 4000 aéroports (messages METAR et TAF).

Les stations disponibles sont représentées par des disques jaunes et rouges sur la carte.

Passer la souris dessus pour voir le nom de la station.

Cliquer dessus pour voir les observations et prévisions météorologiques.

Pour changer de carte: cliquez sur les boutons verts avec une croix noire pour zoomer, sur le bouton vert avec un tiret pour effectuer un zoom arrière, ou sur les flèches vertes pour les cartes adjacentes.


METAR-TAF: